Terminal Aerodrome Forecast
Issued by NWS

Current Version | Previous Version | Graphics & Text | Print | Product List | Glossary On
Versions: 1 2 3 4 5 6 7 8 9 10 11 12 13 14 15 16 17 18 19 20 21 22 23
000
FTUS41 KRLX 212009 AAA
TAFCKB
TAF AMD
KCKB 212009Z 2120/2218 26007KT P6SM SCT030 BKN050
     FM212200 27006KT P6SM SCT050
     FM220700 VRB03KT 5SM BR SCT040
     FM220800 00000KT 5SM BR BKN015
     FM221500 29004KT P6SM SCT025=

USA.gov is the U.S. government's official web portal to all federal, state and local government web resources and services.